Time;durP1;ratioP1;P1;durP2;ratioP2;P2;SDS_P1;SDS_P2;PMS_P1;PMS_P2;Temp;Humidity;BMP_temperature;BMP_pressure;BME280_temperature;BME280_humidity;BME280_pressure;Samples;Min_cycle;Max_cycle;Signal;HPM_P1;HPM_P2
2023/01/09 00:01:23;;;;;;;1.70;0.43;;;10.00;99.90;;;;;;5050894;28;20188;-73
2023/01/09 00:03:49;;;;;;;1.20;0.50;;;10.00;99.90;;;;;;5050709;28;20195;-73
2023/01/09 00:06:15;;;;;;;1.10;0.40;;;9.90;99.90;;;;;;5069083;28;20227;-74
2023/01/09 00:08:41;;;;;;;1.00;0.40;;;9.90;99.90;;;;;;5053490;28;20192;-74
2023/01/09 00:11:07;;;;;;;1.63;1.03;;;9.80;99.90;;;;;;5057320;28;20167;-74
2023/01/09 00:13:34;;;;;;;1.35;0.40;;;9.80;99.90;;;;;;5074790;28;20255;-74
2023/01/09 00:15:59;;;;;;;1.10;0.40;;;9.70;99.90;;;;;;5057926;28;20165;-74
2023/01/09 00:18:25;;;;;;;1.10;0.40;;;9.70;99.90;;;;;;5074078;28;20199;-73
2023/01/09 00:20:51;;;;;;;1.10;0.50;;;9.70;99.90;;;;;;5040788;28;20179;-74
2023/01/09 00:23:17;;;;;;;1.10;0.40;;;9.70;99.90;;;;;;5057044;28;20164;-74
2023/01/09 00:25:42;;;;;;;1.00;0.40;;;9.70;99.90;;;;;;5057714;28;20172;-73
2023/01/09 00:28:08;;;;;;;1.00;0.40;;;9.60;99.90;;;;;;5074866;28;20630;-73
2023/01/09 00:30:34;;;;;;;1.00;0.40;;;9.60;99.90;;;;;;5075803;28;20647;-73
2023/01/09 00:32:59;;;;;;;1.00;0.40;;;9.50;99.90;;;;;;5075352;28;20559;-74
2023/01/09 00:35:27;;;;;;;1.10;0.40;;;9.50;99.90;;;;;;5073617;28;20168;-73
2023/01/09 00:37:53;;;;;;;2.00;0.40;;;9.50;99.90;;;;;;5057401;28;20234;-73
2023/01/09 00:40:19;;;;;;;1.07;0.40;;;9.50;99.90;;;;;;5073957;28;20208;-73
2023/01/09 00:42:51;;;;;;;1.10;0.40;;;9.50;99.90;;;;;;5074991;28;20582;-73
2023/01/09 00:45:27;;;;;;;1.40;0.40;;;9.50;99.90;;;;;;5074690;28;20164;-73
2023/01/09 00:47:57;;;;;;;1.00;0.40;;;9.50;99.90;;;;;;5057481;28;20206;-73
2023/01/09 00:50:28;;;;;;;1.98;0.50;;;9.50;99.90;;;;;;5074073;28;20654;-73
2023/01/09 00:52:56;;;;;;;1.85;0.45;;;9.50;99.90;;;;;;5075136;28;20168;-74
2023/01/09 00:55:22;;;;;;;1.17;0.40;;;9.50;99.90;;;;;;5056483;28;20184;-74
2023/01/09 00:57:48;;;;;;;1.30;0.52;;;9.50;99.90;;;;;;5075232;28;20276;-74
2023/01/09 01:00:14;;;;;;;1.10;0.50;;;9.40;99.90;;;;;;5057176;28;20635;-74
2023/01/09 01:02:40;;;;;;;1.20;0.40;;;9.40;99.90;;;;;;5075014;28;20165;-74
2023/01/09 01:07:50;;;;;;;1.08;0.40;;;9.50;99.90;;;;;;5057056;28;20758;-74
2023/01/09 01:10:22;;;;;;;1.37;0.50;;;9.40;99.90;;;;;;5056987;28;20172;-74
2023/01/09 01:12:49;;;;;;;1.00;0.40;;;9.40;99.90;;;;;;5056833;28;20183;-74
2023/01/09 01:15:15;;;;;;;1.10;0.50;;;9.40;99.90;;;;;;5074826;28;20215;-74
2023/01/09 01:17:41;;;;;;;1.20;0.40;;;9.50;99.90;;;;;;5075019;28;20593;-74
2023/01/09 01:20:11;;;;;;;1.17;0.50;;;9.50;99.90;;;;;;5073259;28;20168;-74
2023/01/09 01:22:37;;;;;;;1.10;0.40;;;9.50;99.90;;;;;;5036793;28;20945;-74
2023/01/09 01:25:04;;;;;;;1.10;0.40;;;9.50;99.90;;;;;;5070211;28;20177;-74
2023/01/09 01:27:30;;;;;;;1.42;0.50;;;9.50;99.90;;;;;;5071376;28;20671;-74
2023/01/09 01:29:56;;;;;;;1.17;0.53;;;9.50;99.90;;;;;;5071993;28;20196;-74
2023/01/09 01:32:22;;;;;;;1.20;0.50;;;9.50;99.90;;;;;;5071271;28;20164;-74
2023/01/09 01:34:48;;;;;;;1.20;0.50;;;9.50;99.90;;;;;;5071401;28;20921;-75
2023/01/09 01:37:14;;;;;;;1.10;0.40;;;9.50;99.90;;;;;;5070232;28;20207;-74
2023/01/09 01:39:40;;;;;;;1.20;0.50;;;9.50;99.90;;;;;;5071496;28;20655;-74
2023/01/09 01:42:06;;;;;;;1.10;0.50;;;9.50;99.90;;;;;;5053237;28;20176;-74
2023/01/09 01:45:11;;;;;;;1.65;0.40;;;9.40;99.90;;;;;;5071090;28;20199;-74
2023/01/09 01:47:43;;;;;;;1.05;0.40;;;9.40;99.90;;;;;;5053058;28;20215;-74
2023/01/09 01:50:18;;;;;;;1.00;0.40;;;9.40;99.90;;;;;;5053529;28;20250;-74
2023/01/09 01:52:49;;;;;;;1.00;0.40;;;9.40;99.90;;;;;;5069960;28;20259;-74
2023/01/09 01:55:17;;;;;;;1.17;0.40;;;9.30;99.90;;;;;;5070606;28;20160;-74
2023/01/09 01:57:47;;;;;;;1.08;0.40;;;9.30;99.90;;;;;;5053411;28;20619;-74
2023/01/09 02:00:14;;;;;;;1.35;0.47;;;9.30;99.90;;;;;;5053075;28;20176;-74
2023/01/09 02:02:42;;;;;;;1.05;0.43;;;9.30;99.90;;;;;;5051662;28;20253;-74
2023/01/09 02:05:08;;;;;;;1.10;0.40;;;9.20;99.90;;;;;;5070547;28;20666;-74
2023/01/09 02:07:34;;;;;;;1.00;0.40;;;9.20;99.90;;;;;;5053046;28;20200;-74
2023/01/09 02:10:00;;;;;;;1.77;0.40;;;9.20;99.90;;;;;;5052776;28;20225;-74
2023/01/09 02:12:27;;;;;;;1.10;0.40;;;9.20;99.90;;;;;;5070738;28;20834;-73
2023/01/09 02:15:09;;;;;;;1.52;0.50;;;9.20;99.90;;;;;;5069088;28;20176;-73
2023/01/09 02:17:41;;;;;;;1.20;0.40;;;9.20;99.90;;;;;;5036327;28;20198;-73
2023/01/09 02:20:40;;;;;;;1.20;0.57;;;9.20;99.90;;;;;;5052765;28;20172;-73
2023/01/09 02:23:33;;;;;;;1.00;0.40;;;9.20;99.90;;;;;;5035274;28;20180;-74
2023/01/09 02:26:27;;;;;;;2.60;0.52;;;9.20;99.90;;;;;;5052642;28;20233;-73
2023/01/09 02:29:30;;;;;;;1.27;0.40;;;9.20;99.90;;;;;;5052410;28;20204;-73
2023/01/09 02:31:55;;;;;;;1.00;0.40;;;9.20;99.90;;;;;;5050909;28;20198;-73
2023/01/09 02:34:44;;;;;;;1.33;0.50;;;9.10;99.90;;;;;;5052413;28;20204;-73
2023/01/09 02:37:24;;;;;;;1.77;0.50;;;9.10;99.90;;;;;;5052105;28;20204;-74
2023/01/09 02:40:13;;;;;;;2.58;0.60;;;9.10;99.90;;;;;;5052638;28;20179;-73
2023/01/09 02:42:42;;;;;;;1.30;0.47;;;9.00;99.90;;;;;;5041204;28;20539;-73
2023/01/09 02:45:08;;;;;;;1.10;0.40;;;9.00;99.90;;;;;;5088895;28;20222;-74
2023/01/09 02:47:35;;;;;;;1.05;0.40;;;9.00;99.90;;;;;;5071957;28;20230;-73
2023/01/09 02:50:04;;;;;;;1.50;0.50;;;9.00;99.90;;;;;;5072514;28;20167;-73
2023/01/09 02:52:44;;;;;;;1.40;0.70;;;9.00;99.90;;;;;;5089586;28;20201;-73
2023/01/09 02:55:36;;;;;;;1.10;0.50;;;9.10;99.90;;;;;;5088714;28;20207;-73
2023/01/09 02:58:23;;;;;;;1.05;0.40;;;9.10;99.90;;;;;;5090262;28;20195;-73
2023/01/09 03:01:31;;;;;;;1.48;0.50;;;9.10;99.90;;;;;;5072158;28;20191;-73
2023/01/09 03:04:11;;;;;;;1.10;0.40;;;9.20;99.90;;;;;;4990473;28;20179;-73
2023/01/09 03:06:42;;;;;;;1.75;0.40;;;9.20;99.90;;;;;;4974914;28;20556;-73
2023/01/09 03:09:19;;;;;;;1.30;0.82;;;9.20;99.90;;;;;;5027155;28;20853;-73
2023/01/09 03:12:17;;;;;;;1.40;0.40;;;9.30;99.90;;;;;;5048378;28;20208;-74
2023/01/09 03:14:49;;;;;;;3.05;0.50;;;9.30;99.90;;;;;;5023197;28;20939;-73
2023/01/09 03:17:22;;;;;;;2.03;0.50;;;9.40;99.90;;;;;;5048298;28;20193;-73
2023/01/09 03:19:50;;;;;;;1.80;0.50;;;9.40;99.90;;;;;;5031645;28;20177;-73
2023/01/09 03:22:17;;;;;;;3.83;0.50;;;9.40;99.90;;;;;;5015082;28;20173;-74
2023/01/09 03:24:43;;;;;;;1.63;0.50;;;9.40;99.90;;;;;;5048952;28;20271;-73
2023/01/09 03:27:08;;;;;;;1.30;0.40;;;9.30;99.90;;;;;;5014934;28;20291;-73
2023/01/09 03:29:34;;;;;;;1.00;0.40;;;9.30;99.90;;;;;;5031576;28;20176;-73
2023/01/09 03:32:00;;;;;;;1.50;0.50;;;9.30;99.90;;;;;;5049273;28;20571;-74
2023/01/09 03:34:26;;;;;;;1.30;0.50;;;9.20;99.90;;;;;;5011419;28;20573;-73
2023/01/09 03:36:51;;;;;;;1.13;0.50;;;9.20;99.90;;;;;;5046220;28;20243;-74
2023/01/09 03:39:17;;;;;;;1.80;0.50;;;9.10;99.90;;;;;;5031252;28;20173;-74
2023/01/09 03:41:42;;;;;;;1.70;0.60;;;9.10;99.90;;;;;;5031103;28;20193;-73
2023/01/09 03:44:08;;;;;;;1.50;0.50;;;9.00;99.90;;;;;;5048508;28;20695;-73
2023/01/09 03:46:34;;;;;;;1.93;0.60;;;9.00;99.90;;;;;;5049021;28;20271;-74
2023/01/09 03:48:59;;;;;;;2.27;0.70;;;9.00;99.90;;;;;;5031564;28;20196;-73
2023/01/09 03:51:25;;;;;;;2.30;0.50;;;8.90;99.90;;;;;;5030734;28;20168;-73
2023/01/09 03:53:51;;;;;;;1.40;0.50;;;8.90;99.90;;;;;;5048438;28;20171;-73
2023/01/09 03:56:16;;;;;;;1.10;0.50;;;8.80;99.90;;;;;;5031277;28;20681;-74
2023/01/09 03:58:42;;;;;;;1.53;0.50;;;8.80;99.90;;;;;;5049332;28;20261;-73
2023/01/09 04:01:11;;;;;;;1.63;0.60;;;8.70;99.90;;;;;;5014299;28;20592;-73
2023/01/09 04:03:37;;;;;;;1.52;0.60;;;8.70;99.90;;;;;;5030934;28;20271;-73
2023/01/09 04:06:04;;;;;;;1.10;0.50;;;8.60;99.90;;;;;;5048688;28;20200;-73
2023/01/09 04:08:29;;;;;;;1.27;0.60;;;8.50;99.90;;;;;;5048902;28;20205;-73
2023/01/09 04:10:55;;;;;;;1.10;0.50;;;8.50;99.90;;;;;;5048735;28;20171;-73
2023/01/09 04:13:21;;;;;;;2.13;0.67;;;8.40;99.90;;;;;;5048582;28;20177;-73
2023/01/09 04:15:47;;;;;;;1.67;0.50;;;8.40;99.90;;;;;;5048792;28;20568;-73
2023/01/09 04:18:14;;;;;;;1.20;0.57;;;8.30;99.90;;;;;;5048587;28;20216;-73
2023/01/09 04:20:40;;;;;;;1.55;0.50;;;8.30;99.90;;;;;;5030908;28;20172;-73
2023/01/09 04:23:06;;;;;;;1.52;0.60;;;8.20;99.90;;;;;;5048852;28;20177;-75
2023/01/09 04:25:32;;;;;;;1.83;0.60;;;8.20;99.90;;;;;;5031144;28;20184;-75
2023/01/09 04:27:57;;;;;;;3.00;0.60;;;8.10;99.90;;;;;;5048632;28;20966;-74
2023/01/09 04:30:23;;;;;;;1.73;0.60;;;8.10;99.90;;;;;;5031132;28;20587;-74
2023/01/09 04:32:50;;;;;;;2.77;0.80;;;8.00;99.90;;;;;;5048497;28;20517;-74
2023/01/09 04:35:17;;;;;;;1.20;0.50;;;8.00;99.90;;;;;;5031163;28;20591;-74
2023/01/09 04:37:43;;;;;;;2.33;0.50;;;7.90;99.90;;;;;;5048674;28;20738;-74
2023/01/09 04:40:09;;;;;;;1.87;0.60;;;7.90;99.90;;;;;;5049205;28;20180;-74
2023/01/09 04:42:39;;;;;;;1.40;0.60;;;7.90;99.90;;;;;;5031111;28;20180;-74
2023/01/09 04:45:07;;;;;;;1.30;0.50;;;7.90;99.90;;;;;;5049102;28;20291;-74
2023/01/09 04:47:33;;;;;;;2.65;0.70;;;7.80;99.90;;;;;;5048852;28;20201;-74
2023/01/09 04:49:59;;;;;;;1.20;0.50;;;7.90;99.90;;;;;;5031003;28;20705;-75
2023/01/09 04:52:25;;;;;;;1.95;0.57;;;7.80;99.90;;;;;;5030471;28;20595;-72
2023/01/09 04:54:51;;;;;;;2.00;0.60;;;7.90;99.90;;;;;;5013552;28;20603;-72
2023/01/09 04:57:17;;;;;;;2.33;0.80;;;7.90;99.90;;;;;;5052346;28;20204;-72
2023/01/09 04:59:43;;;;;;;1.10;0.50;;;8.00;99.90;;;;;;5052105;28;20212;-72
2023/01/09 05:02:09;;;;;;;1.50;0.50;;;8.00;99.90;;;;;;5051791;28;20584;-72
2023/01/09 05:04:35;;;;;;;1.20;0.45;;;8.10;99.90;;;;;;5051371;28;20176;-72
2023/01/09 05:07:01;;;;;;;1.45;0.55;;;8.10;99.90;;;;;;5051949;28;20211;-72
2023/01/09 05:09:27;;;;;;;3.70;0.50;;;8.20;99.90;;;;;;5053852;28;20484;-73
2023/01/09 05:11:53;;;;;;;2.13;0.60;;;8.30;99.90;;;;;;5053704;28;20222;-73
2023/01/09 05:14:19;;;;;;;2.40;0.53;;;8.30;99.90;;;;;;5070404;28;20172;-73
2023/01/09 05:16:45;;;;;;;4.97;1.00;;;8.40;99.90;;;;;;5070571;28;20180;-73
2023/01/09 05:19:10;;;;;;;2.30;0.70;;;8.40;99.90;;;;;;5072245;28;21037;-72
2023/01/09 05:21:36;;;;;;;1.40;0.50;;;8.50;99.90;;;;;;5071824;28;20582;-72
2023/01/09 05:24:02;;;;;;;1.50;0.60;;;8.50;99.90;;;;;;5073434;28;20168;-72
2023/01/09 05:26:28;;;;;;;3.73;0.60;;;8.60;99.90;;;;;;5072790;28;20559;-72
2023/01/09 05:28:56;;;;;;;1.40;0.60;;;8.70;99.90;;;;;;5054712;28;20219;-72
2023/01/09 05:31:25;;;;;;;1.70;0.77;;;8.70;99.90;;;;;;5054606;28;20231;-72
2023/01/09 05:33:51;;;;;;;4.28;0.60;;;8.70;99.90;;;;;;5072486;28;20171;-72
2023/01/09 05:36:17;;;;;;;3.30;0.50;;;8.80;99.90;;;;;;5053716;28;20196;-72
2023/01/09 05:38:43;;;;;;;2.13;0.73;;;8.80;99.90;;;;;;5070501;28;20222;-72
2023/01/09 05:41:09;;;;;;;4.80;0.70;;;8.90;99.90;;;;;;5053537;28;20213;-73
2023/01/09 05:43:35;;;;;;;3.35;0.70;;;8.90;99.90;;;;;;5020725;28;20169;-72
2023/01/09 05:46:01;;;;;;;2.07;0.70;;;9.00;99.90;;;;;;5053640;28;20176;-72
2023/01/09 05:48:26;;;;;;;1.83;0.57;;;9.00;99.90;;;;;;5037053;28;20978;-73
2023/01/09 05:50:52;;;;;;;3.53;0.70;;;9.10;99.90;;;;;;5071544;28;20673;-72
2023/01/09 05:53:18;;;;;;;3.13;0.80;;;9.10;99.90;;;;;;5052737;28;20176;-72
2023/01/09 05:55:44;;;;;;;1.60;0.60;;;9.20;99.90;;;;;;5070174;28;20168;-72
2023/01/09 05:58:09;;;;;;;2.43;0.60;;;9.20;99.90;;;;;;5036591;28;20203;-72
2023/01/09 06:00:35;;;;;;;2.70;0.50;;;9.30;99.90;;;;;;5069984;28;20590;-72
2023/01/09 06:03:01;;;;;;;1.93;0.57;;;9.30;99.90;;;;;;5069585;28;20179;-72
2023/01/09 06:05:27;;;;;;;2.35;0.65;;;9.30;99.90;;;;;;5052696;28;20184;-72
2023/01/09 06:07:52;;;;;;;1.57;0.40;;;9.30;99.90;;;;;;5070429;28;20317;-72
2023/01/09 06:10:18;;;;;;;2.67;0.63;;;9.40;99.90;;;;;;5071118;28;20215;-72
2023/01/09 06:12:49;;;;;;;1.30;0.50;;;9.40;99.90;;;;;;5052679;28;20173;-72
2023/01/09 06:15:15;;;;;;;2.20;0.70;;;9.50;99.90;;;;;;5052295;28;20590;-72
2023/01/09 06:17:42;;;;;;;2.45;0.60;;;9.50;99.90;;;;;;5070770;28;20188;-73
2023/01/09 06:20:08;;;;;;;1.60;0.60;;;9.50;99.90;;;;;;5052867;28;20176;-73
2023/01/09 06:22:34;;;;;;;3.67;0.57;;;9.50;99.90;;;;;;5070695;28;20172;-73
2023/01/09 06:25:00;;;;;;;2.20;0.67;;;9.60;99.90;;;;;;5070140;28;20671;-73
2023/01/09 06:27:26;;;;;;;1.30;0.60;;;9.60;99.90;;;;;;5070597;28;20571;-73
2023/01/09 06:29:52;;;;;;;2.17;0.60;;;9.60;99.90;;;;;;5052455;28;20176;-77
2023/01/09 06:32:18;;;;;;;2.40;0.53;;;9.60;99.90;;;;;;5070527;28;20180;-76
2023/01/09 06:34:43;;;;;;;1.43;0.60;;;9.60;99.90;;;;;;5069835;28;20259;-76
2023/01/09 06:37:10;;;;;;;2.43;0.67;;;9.60;99.90;;;;;;5070538;28;20192;-76
2023/01/09 06:39:35;;;;;;;4.10;0.70;;;9.60;99.90;;;;;;5052796;28;20312;-77
2023/01/09 06:42:01;;;;;;;2.13;0.60;;;9.70;99.90;;;;;;5069040;28;20225;-76
2023/01/09 06:44:27;;;;;;;3.10;0.57;;;9.70;99.90;;;;;;5069651;28;20169;-76
2023/01/09 06:46:53;;;;;;;2.70;0.90;;;9.70;99.90;;;;;;5052415;28;20208;-76
2023/01/09 06:49:22;;;;;;;2.50;0.60;;;9.70;99.90;;;;;;5070629;28;20652;-76
2023/01/09 06:51:49;;;;;;;1.85;0.60;;;9.70;99.90;;;;;;5052044;28;20530;-75
2023/01/09 06:54:16;;;;;;;2.20;0.68;;;9.80;99.90;;;;;;5069830;28;20639;-76
2023/01/09 06:56:42;;;;;;;2.85;0.50;;;9.80;99.90;;;;;;5069868;28;20254;-77
2023/01/09 06:59:08;;;;;;;5.00;0.60;;;9.80;99.90;;;;;;5069468;23;20630;-77
2023/01/09 07:01:34;;;;;;;1.70;0.60;;;9.80;99.90;;;;;;5086200;28;20189;-77
2023/01/09 07:04:00;;;;;;;1.83;0.60;;;9.80;99.90;;;;;;5091055;28;20168;-77
2023/01/09 07:06:26;;;;;;;1.25;0.60;;;9.80;99.90;;;;;;5089994;28;20207;-76
2023/01/09 07:08:52;;;;;;;2.20;0.60;;;9.80;99.90;;;;;;5067785;28;20199;-76
2023/01/09 07:11:18;;;;;;;2.43;0.70;;;9.80;99.90;;;;;;5071408;28;20179;-75
2023/01/09 07:13:43;;;;;;;2.70;0.60;;;9.80;99.90;;;;;;5034568;28;20182;-77
2023/01/09 07:16:09;;;;;;;1.80;0.70;;;9.80;99.90;;;;;;5068068;28;20164;-77
2023/01/09 07:18:35;;;;;;;1.80;0.60;;;9.80;99.90;;;;;;5069153;28;20184;-77
2023/01/09 07:21:01;;;;;;;3.40;0.63;;;9.80;99.90;;;;;;5069663;28;20179;-77
2023/01/09 07:23:27;;;;;;;1.97;0.50;;;9.80;99.90;;;;;;5068857;28;20169;-77
2023/01/09 07:25:53;;;;;;;1.30;0.60;;;9.70;99.90;;;;;;5069899;28;20172;-77
2023/01/09 07:28:19;;;;;;;1.50;0.60;;;9.70;99.90;;;;;;5069174;28;20729;-77
2023/01/09 07:30:44;;;;;;;2.60;0.80;;;9.70;99.90;;;;;;5051928;28;20176;-76
2023/01/09 07:33:10;;;;;;;2.70;0.70;;;9.70;99.90;;;;;;5050756;28;20174;-76
2023/01/09 07:35:36;;;;;;;2.43;0.60;;;9.80;99.90;;;;;;5070003;28;20165;-76
2023/01/09 07:38:01;;;;;;;2.07;0.73;;;9.80;99.90;;;;;;5071641;28;20172;-76
2023/01/09 07:40:27;;;;;;;2.70;0.60;;;9.80;99.90;;;;;;5053270;28;20180;-76
2023/01/09 07:42:53;;;;;;;1.87;0.60;;;9.80;99.90;;;;;;5050934;28;20222;-76
2023/01/09 07:45:19;;;;;;;3.13;0.60;;;9.80;99.90;;;;;;5069195;28;20172;-76
2023/01/09 07:47:45;;;;;;;1.63;0.73;;;9.80;99.90;;;;;;5069223;28;20256;-76
2023/01/09 07:50:11;;;;;;;1.40;0.50;;;9.80;99.90;;;;;;5069529;28;20269;-76
2023/01/09 07:52:38;;;;;;;2.45;0.60;;;9.80;99.90;;;;;;5069185;28;20171;-75
2023/01/09 07:55:04;;;;;;;4.15;0.68;;;9.80;99.90;;;;;;5068786;28;20629;-76
2023/01/09 07:57:30;;;;;;;2.17;1.20;;;9.80;99.90;;;;;;5069062;28;20214;-77
2023/01/09 07:59:56;;;;;;;1.43;0.60;;;9.80;99.90;;;;;;5034176;28;20617;-77
2023/01/09 08:02:21;;;;;;;2.07;0.60;;;9.90;99.90;;;;;;5069231;28;20182;-77
2023/01/09 08:04:47;;;;;;;2.07;0.60;;;9.90;99.90;;;;;;5050828;28;20176;-78
2023/01/09 08:07:13;;;;;;;1.57;0.70;;;9.90;99.90;;;;;;5051282;28;20289;-77
2023/01/09 08:09:39;;;;;;;2.88;0.60;;;9.90;99.90;;;;;;5051307;28;20257;-76
2023/01/09 08:12:05;;;;;;;3.20;0.60;;;9.90;99.90;;;;;;5067670;28;20169;-75
2023/01/09 08:14:31;;;;;;;1.40;0.60;;;10.00;99.90;;;;;;5068330;28;20175;-76
2023/01/09 08:16:56;;;;;;;3.13;0.60;;;10.00;99.90;;;;;;5038188;28;20168;-76
2023/01/09 08:19:22;;;;;;;1.67;0.70;;;10.00;99.90;;;;;;5050799;28;20190;-75
2023/01/09 08:21:48;;;;;;;1.80;0.70;;;10.00;99.90;;;;;;5068862;28;20210;-76
2023/01/09 08:24:14;;;;;;;2.92;0.60;;;10.00;99.90;;;;;;5066901;28;20226;-76
2023/01/09 08:26:40;;;;;;;1.20;0.50;;;10.00;99.90;;;;;;5050841;28;20616;-75
2023/01/09 08:29:05;;;;;;;2.50;0.70;;;10.00;99.90;;;;;;5069656;28;20208;-75
2023/01/09 08:31:31;;;;;;;2.03;0.57;;;10.00;99.90;;;;;;5072672;28;20171;-76
2023/01/09 08:33:57;;;;;;;2.03;0.60;;;10.00;99.90;;;;;;5072626;28;20598;-75
2023/01/09 08:36:22;;;;;;;4.27;0.60;;;10.00;99.90;;;;;;5072734;28;20276;-77
2023/01/09 08:38:48;;;;;;;3.10;0.70;;;10.00;99.90;;;;;;5073007;28;20195;-77
2023/01/09 08:47:05;;;;;;;2.05;0.68;;;10.00;99.90;;;;;;5054653;28;20563;-79
2023/01/09 08:49:32;;;;;;;1.63;0.70;;;10.10;99.90;;;;;;5054851;28;20278;-79
2023/01/09 08:51:58;;;;;;;3.22;1.20;;;10.10;99.90;;;;;;5072729;28;20179;-79
2023/01/09 08:54:24;;;;;;;2.27;0.60;;;10.20;99.90;;;;;;5074571;28;20164;-78
2023/01/09 08:56:50;;;;;;;1.50;0.60;;;10.20;99.90;;;;;;5072221;28;20207;-78
2023/01/09 08:59:16;;;;;;;2.05;0.60;;;10.20;99.90;;;;;;5072435;28;20223;-78
2023/01/09 09:01:42;;;;;;;1.98;0.65;;;10.30;99.90;;;;;;5054216;28;20691;-78
2023/01/09 09:04:07;;;;;;;2.47;0.70;;;10.30;99.90;;;;;;5072069;28;20211;-79
2023/01/09 09:06:34;;;;;;;2.03;0.77;;;10.30;99.90;;;;;;5072110;28;20221;-78
2023/01/09 09:09:05;;;;;;;2.90;0.80;;;10.30;99.90;;;;;;5070858;28;20626;-78
2023/01/09 09:11:32;;;;;;;2.33;0.75;;;10.30;99.90;;;;;;5071742;28;20172;-78
2023/01/09 09:13:58;;;;;;;1.73;0.60;;;10.30;99.90;;;;;;5071757;28;20200;-78
2023/01/09 09:16:25;;;;;;;4.20;0.77;;;10.30;99.90;;;;;;5072106;28;20188;-78
2023/01/09 09:18:51;;;;;;;1.73;0.68;;;10.30;99.90;;;;;;5070861;28;20254;-78
2023/01/09 09:21:17;;;;;;;3.33;1.65;;;10.30;99.90;;;;;;5071752;28;20171;-78
2023/01/09 09:23:43;;;;;;;1.85;0.63;;;10.30;99.90;;;;;;5071434;28;20203;-78
2023/01/09 09:26:09;;;;;;;1.83;0.80;;;10.30;99.90;;;;;;5054250;28;20647;-78
2023/01/09 09:28:35;;;;;;;2.03;0.60;;;10.30;99.90;;;;;;5070993;28;20196;-79
2023/01/09 09:31:04;;;;;;;2.80;0.70;;;10.30;99.90;;;;;;5074436;28;20701;-78
2023/01/09 09:33:30;;;;;;;1.50;0.60;;;10.30;99.90;;;;;;5071271;28;20168;-78
2023/01/09 09:35:58;;;;;;;2.20;0.60;;;10.30;99.90;;;;;;5071931;28;20561;-79
2023/01/09 09:38:24;;;;;;;2.15;0.70;;;10.30;99.90;;;;;;5053353;28;20201;-79
2023/01/09 09:47:18;;;;;;;2.55;1.25;;;10.40;99.90;;;;;;5053754;28;20204;-78
2023/01/09 09:50:05;;;;;;;2.17;0.93;;;10.40;99.90;;;;;;5071637;28;20634;-79
2023/01/09 09:52:53;;;;;;;1.50;0.65;;;10.40;99.90;;;;;;5071114;28;20171;-78
2023/01/09 09:55:25;;;;;;;2.08;0.63;;;10.50;99.90;;;;;;5071121;28;20161;-78
2023/01/09 09:57:52;;;;;;;2.60;0.82;;;10.50;99.90;;;;;;5070179;28;20172;-79
2023/01/09 10:00:20;;;;;;;2.45;1.13;;;10.50;99.90;;;;;;5071125;28;20188;-78
2023/01/09 10:02:57;;;;;;;2.05;0.80;;;10.50;99.90;;;;;;5071192;28;20173;-78
2023/01/09 10:05:36;;;;;;;3.20;0.90;;;10.50;99.90;;;;;;5070893;28;20226;-79
2023/01/09 10:08:08;;;;;;;4.65;1.77;;;10.50;99.90;;;;;;5071619;28;20207;-78
2023/01/09 10:10:42;;;;;;;2.90;0.75;;;10.50;99.90;;;;;;5071163;28;20172;-79
2023/01/09 10:16:37;;;;;;;4.07;1.00;;;10.60;99.90;;;;;;5053005;28;20169;-78
2023/01/09 10:19:09;;;;;;;1.83;0.77;;;10.60;99.90;;;;;;5021384;28;20196;-77
2023/01/09 10:21:55;;;;;;;2.05;0.60;;;10.60;99.90;;;;;;5052804;28;20234;-78
2023/01/09 10:24:54;;;;;;;1.50;0.50;;;10.60;99.90;;;;;;5069157;28;20587;-78
2023/01/09 10:27:32;;;;;;;1.98;0.50;;;10.70;99.90;;;;;;5070972;28;20206;-77
2023/01/09 10:30:16;;;;;;;1.50;0.55;;;10.70;99.90;;;;;;5067927;28;20191;-77
2023/01/09 10:32:56;;;;;;;1.80;0.52;;;10.80;99.90;;;;;;5064429;28;20179;-78
2023/01/09 10:35:48;;;;;;;1.40;0.57;;;10.80;99.90;;;;;;5055471;28;20167;-78
2023/01/09 10:38:19;;;;;;;2.55;0.60;;;10.90;99.90;;;;;;5072814;28;20713;-78
2023/01/09 10:40:52;;;;;;;1.80;0.70;;;10.90;99.90;;;;;;5072756;28;20179;-78
2023/01/09 10:43:45;;;;;;;1.60;0.60;;;10.90;99.90;;;;;;5090300;28;20176;-79
2023/01/09 10:46:37;;;;;;;1.20;0.40;;;11.00;99.90;;;;;;5084265;28;20215;-78
2023/01/09 10:49:09;;;;;;;2.75;1.02;;;11.00;99.90;;;;;;5081552;28;20257;-78
2023/01/09 10:51:50;;;;;;;1.50;0.55;;;11.10;99.90;;;;;;5055305;28;20571;-78
2023/01/09 10:54:20;;;;;;;1.58;1.23;;;11.10;99.90;;;;;;5089462;28;20174;-79
2023/01/09 10:57:03;;;;;;;2.47;0.60;;;11.20;99.90;;;;;;5072509;28;20324;-78
2023/01/09 10:59:29;;;;;;;2.55;0.60;;;11.20;99.90;;;;;;5072388;28;20211;-78
2023/01/09 11:01:55;;;;;;;1.55;0.60;;;11.20;99.90;;;;;;5071960;28;20517;-78
2023/01/09 11:04:29;;;;;;;1.73;0.50;;;11.30;99.90;;;;;;5090054;28;20175;-78
2023/01/09 11:07:01;;;;;;;1.48;0.50;;;11.30;99.90;;;;;;5090612;28;20566;-78
2023/01/09 11:09:27;;;;;;;1.20;0.50;;;11.40;99.90;;;;;;5072148;28;20210;-78
2023/01/09 11:11:53;;;;;;;3.55;0.70;;;11.40;99.90;;;;;;5071896;28;20195;-79
2023/01/09 11:14:30;;;;;;;2.03;0.60;;;11.40;99.90;;;;;;5089944;28;20191;-77
2023/01/09 11:17:03;;;;;;;2.55;0.90;;;11.50;99.90;;;;;;5072022;28;20220;-77
2023/01/09 11:19:32;;;;;;;3.20;0.90;;;11.50;99.90;;;;;;5072122;28;20196;-79
2023/01/09 11:22:16;;;;;;;3.22;1.00;;;11.60;99.90;;;;;;5093189;28;20177;-79
2023/01/09 11:24:43;;;;;;;1.60;0.80;;;11.60;99.90;;;;;;5089793;28;20174;-79
2023/01/09 11:27:11;;;;;;;2.40;0.90;;;11.70;99.90;;;;;;5089912;28;20322;-79
2023/01/09 11:29:38;;;;;;;1.40;0.50;;;11.70;99.90;;;;;;5055122;28;20197;-76
2023/01/09 11:32:03;;;;;;;1.48;0.50;;;11.70;99.90;;;;;;5071417;28;20163;-78
2023/01/09 11:34:31;;;;;;;1.93;0.70;;;11.60;99.90;;;;;;5071183;28;20527;-80
2023/01/09 11:37:25;;;;;;;2.03;0.73;;;11.60;99.90;;;;;;5089936;28;20652;-77
2023/01/09 11:39:51;;;;;;;2.30;0.60;;;11.60;99.90;;;;;;5051373;28;20732;-78
2023/01/09 11:45:16;;;;;;;3.72;0.75;;;11.50;99.90;;;;;;5089336;28;20164;-77
2023/01/09 11:47:43;;;;;;;2.25;0.60;;;11.60;99.90;;;;;;5071353;28;20198;-77
2023/01/09 11:50:26;;;;;;;2.35;0.63;;;11.60;99.90;;;;;;5089500;28;20648;-77
2023/01/09 11:53:12;;;;;;;1.85;0.70;;;11.60;99.90;;;;;;5071031;28;20183;-77
2023/01/09 11:55:37;;;;;;;1.52;0.82;;;11.60;99.90;;;;;;5089664;28;20577;-77
2023/01/09 11:58:04;;;;;;;1.65;0.60;;;11.60;99.90;;;;;;5071075;28;20628;-77
2023/01/09 12:00:40;;;;;;;2.23;0.70;;;11.60;99.90;;;;;;5074603;28;20179;-76
2023/01/09 12:03:26;;;;;;;1.40;0.70;;;11.60;99.90;;;;;;5070488;28;20589;-77
2023/01/09 12:06:13;;;;;;;1.20;0.50;;;11.60;99.90;;;;;;5089395;28;20168;-76
2023/01/09 12:08:46;;;;;;;2.45;0.70;;;11.60;99.90;;;;;;5070988;28;20291;-76
2023/01/09 12:11:35;;;;;;;2.20;0.52;;;11.60;99.90;;;;;;5071036;28;20263;-77
2023/01/09 12:14:21;;;;;;;1.50;0.50;;;11.60;99.90;;;;;;5054143;28;20179;-77
2023/01/09 12:17:05;;;;;;;3.35;0.65;;;11.60;99.90;;;;;;5089434;28;20186;-77
2023/01/09 12:19:52;;;;;;;1.50;0.60;;;11.70;99.90;;;;;;5089434;28;20187;-76
2023/01/09 12:22:56;;;;;;;1.48;0.47;;;11.70;99.90;;;;;;5071447;28;20171;-77
2023/01/09 12:25:39;;;;;;;1.10;0.40;;;11.80;99.90;;;;;;5071002;28;20163;-74
2023/01/09 12:28:31;;;;;;;1.10;0.40;;;11.80;99.90;;;;;;5071597;28;20207;-76
2023/01/09 12:31:26;;;;;;;1.20;0.50;;;11.90;99.90;;;;;;5089421;28;20171;-77
2023/01/09 12:34:10;;;;;;;1.30;0.50;;;11.80;99.90;;;;;;5088215;28;20179;-76
2023/01/09 12:37:11;;;;;;;1.40;0.60;;;11.90;99.90;;;;;;5089848;28;20248;-76
2023/01/09 12:39:52;;;;;;;1.27;0.50;;;12.00;99.90;;;;;;5071418;28;20281;-76
2023/01/09 12:42:37;;;;;;;1.70;0.80;;;12.00;99.90;;;;;;5088810;28;20171;-76
2023/01/09 12:45:48;;;;;;;1.60;0.70;;;12.00;99.90;;;;;;5088428;28;20199;-76
2023/01/09 12:48:35;;;;;;;1.88;0.63;;;12.10;99.90;;;;;;5089273;28;20569;-76
2023/01/09 12:51:22;;;;;;;2.45;0.88;;;12.20;99.90;;;;;;5088965;28;20172;-76
2023/01/09 12:54:18;;;;;;;2.13;0.80;;;12.20;99.90;;;;;;5088765;28;20535;-78
2023/01/09 12:56:51;;;;;;;1.55;0.70;;;12.30;99.90;;;;;;5070641;28;20187;-76
2023/01/09 12:59:29;;;;;;;1.50;0.70;;;12.40;99.90;;;;;;5088915;28;20567;-76
2023/01/09 13:02:07;;;;;;;1.50;0.80;;;12.40;99.90;;;;;;5088406;28;20681;-76
2023/01/09 13:04:48;;;;;;;2.00;1.35;;;12.50;99.90;;;;;;5070369;28;20187;-76
2023/01/09 13:07:29;;;;;;;2.25;0.93;;;12.60;99.90;;;;;;5088574;28;20203;-77
2023/01/09 13:10:32;;;;;;;1.40;0.70;;;12.60;99.90;;;;;;5088635;28;20830;-78
2023/01/09 13:13:05;;;;;;;2.95;1.20;;;12.50;99.90;;;;;;5084701;28;20174;-78
2023/01/09 13:15:39;;;;;;;2.70;0.77;;;12.50;99.90;;;;;;5068331;28;20655;-77
2023/01/09 13:18:15;;;;;;;2.25;0.80;;;12.40;99.90;;;;;;5073429;28;20253;-78
2023/01/09 13:20:45;;;;;;;3.10;0.90;;;12.30;99.90;;;;;;5092037;28;20236;-77
2023/01/09 13:23:42;;;;;;;2.85;0.90;;;12.30;99.90;;;;;;5064895;28;20175;-78
2023/01/09 13:26:26;;;;;;;2.28;0.60;;;12.30;99.90;;;;;;5071259;28;20187;-78
2023/01/09 13:29:01;;;;;;;1.30;0.70;;;12.30;99.90;;;;;;5070606;28;20192;-78
2023/01/09 13:32:08;;;;;;;7.63;0.80;;;12.30;99.90;;;;;;5074022;28;20175;-78
2023/01/09 13:34:37;;;;;;;2.15;0.70;;;12.30;99.90;;;;;;5051800;28;20186;-78